Time;durP1;ratioP1;P1;durP2;ratioP2;P2;SDS_P1;SDS_P2;PMS_P1;PMS_P2;Temp;Humidity;BMP_temperature;BMP_pressure;BME280_temperature;BME280_humidity;BME280_pressure;Samples;Min_cycle;Max_cycle;Signal;HPM_P1;HPM_P2
2022/07/08 00:00:49;;;;;;;;;;;;;;;22.86;46.52;96509.38;10500966;28;1965;-59
2022/07/08 00:05:50;;;;;;;;;;;;;;;22.87;46.51;96510.97;10509075;28;1775;-60
2022/07/08 00:10:50;;;;;;;;;;;;;;;22.87;46.40;96506.47;10509082;28;1852;-62
2022/07/08 00:15:51;;;;;;;;;;;;;;;22.87;46.47;96503.03;10511727;28;1839;-59
2022/07/08 00:20:51;;;;;;;;;;;;;;;22.88;46.05;96507.25;10510433;28;1971;-59
2022/07/08 00:25:52;;;;;;;;;;;;;;;22.88;46.15;96499.31;10508566;28;1878;-61
2022/07/08 00:30:52;;;;;;;;;;;;;;;22.89;46.24;96498.28;10508567;28;1956;-60
2022/07/08 00:35:52;;;;;;;;;;;;;;;22.88;46.21;96497.47;10506170;28;1840;-61
2022/07/08 00:40:53;;;;;;;;;;;;;;;22.89;46.24;96500.91;10499154;28;2151;-63
2022/07/08 00:45:53;;;;;;;;;;;;;;;22.90;46.29;96505.13;10503874;28;1832;-60
2022/07/08 00:50:53;;;;;;;;;;;;;;;22.89;46.26;96506.22;10506313;28;1862;-61
2022/07/08 00:55:53;;;;;;;;;;;;;;;22.88;46.02;96496.69;10492233;28;1961;-64
2022/07/08 01:00:54;;;;;;;;;;;;;;;22.89;46.16;96499.06;10506822;28;1977;-57
2022/07/08 01:05:54;;;;;;;;;;;;;;;22.89;46.21;96504.34;10511140;28;1946;-56
2022/07/08 01:10:54;;;;;;;;;;;;;;;22.89;46.10;96500.91;10513361;28;1852;-59
2022/07/08 01:15:56;;;;;;;;;;;;;;;22.91;46.08;96501.44;10511259;28;1823;-58
2022/07/08 01:21:01;;;;;;;;;;;;;;;22.90;46.11;96499.84;10510574;28;2004;-59
2022/07/08 01:26:09;;;;;;;;;;;;;;;22.92;46.25;96505.66;10511837;28;2234;-61
2022/07/08 01:31:10;;;;;;;;;;;;;;;22.91;46.23;96506.72;10507929;28;1932;-60
2022/07/08 01:36:20;;;;;;;;;;;;;;;22.92;46.22;96508.28;10506093;28;1991;-58
2022/07/08 01:41:20;;;;;;;;;;;;;;;22.92;46.08;96513.59;10509674;28;2027;-52
2022/07/08 01:46:21;;;;;;;;;;;;;;;22.92;46.29;96516.22;10507323;28;2276;-55
2022/07/08 01:51:21;;;;;;;;;;;;;;;22.92;46.23;96513.59;10508411;28;1985;-56
2022/07/08 01:56:22;;;;;;;;;;;;;;;22.92;46.15;96517.03;10505973;28;1957;-57
2022/07/08 02:01:22;;;;;;;;;;;;;;;22.92;46.34;96519.66;10504351;28;2056;-59
2022/07/08 02:06:23;;;;;;;;;;;;;;;22.93;46.26;96537.13;10506742;28;1897;-59
2022/07/08 02:16:43;;;;;;;;;;;;;;;22.93;46.28;96531.03;10508441;28;2045;-58
2022/07/08 02:21:44;;;;;;;;;;;;;;;22.93;46.50;96537.13;10510595;28;2064;-60
2022/07/08 02:26:44;;;;;;;;;;;;;;;22.94;46.75;96543.97;10507954;28;1976;-60
2022/07/08 02:31:44;;;;;;;;;;;;;;;22.96;46.57;96546.34;10507254;28;1989;-61
2022/07/08 02:36:45;;;;;;;;;;;;;;;22.96;46.77;96560.38;10504266;28;1905;-60
2022/07/08 02:41:46;;;;;;;;;;;;;;;22.97;46.51;96561.16;10502115;28;2002;-56
2022/07/08 02:46:46;;;;;;;;;;;;;;;22.98;46.81;96568.06;10500535;28;1597;-55
2022/07/08 02:51:47;;;;;;;;;;;;;;;22.97;46.52;96577.84;10507482;28;1863;-61
2022/07/08 02:56:47;;;;;;;;;;;;;;;22.98;46.88;96584.69;10509888;28;1960;-58
2022/07/08 03:01:47;;;;;;;;;;;;;;;22.98;46.73;96589.22;10506151;28;2035;-59
2022/07/08 03:06:48;;;;;;;;;;;;;;;22.98;46.84;96602.44;10507079;28;1858;-60
2022/07/08 03:11:48;;;;;;;;;;;;;;;22.98;46.52;96610.34;10504017;28;1985;-57
2022/07/08 03:16:48;;;;;;;;;;;;;;;22.97;46.66;96627.28;10505818;28;2048;-57
2022/07/08 03:21:50;;;;;;;;;;;;;;;22.99;46.66;96627.78;10508358;28;1977;-57
2022/07/08 03:26:50;;;;;;;;;;;;;;;22.99;46.76;96638.38;10507918;28;1477;-59
2022/07/08 03:31:50;;;;;;;;;;;;;;;22.98;46.96;96628.88;10510972;28;1552;-61
2022/07/08 03:36:50;;;;;;;;;;;;;;;22.99;46.72;96656.88;10513169;28;1426;-58
2022/07/08 03:41:51;;;;;;;;;;;;;;;22.99;46.69;96667.47;10512533;28;2162;-58
2022/07/08 03:46:52;;;;;;;;;;;;;;;22.99;46.71;96667.47;10512803;28;1929;-57
2022/07/08 03:51:53;;;;;;;;;;;;;;;22.98;46.90;96677.22;10518762;28;1980;-61
2022/07/08 03:56:54;;;;;;;;;;;;;;;22.98;46.77;96689.69;10513100;28;2087;-59
2022/07/08 04:01:55;;;;;;;;;;;;;;;22.97;46.92;96694.16;10510812;28;1984;-61
2022/07/08 04:06:56;;;;;;;;;;;;;;;22.96;46.83;96705.78;10515049;28;1497;-59
2022/07/08 04:11:57;;;;;;;;;;;;;;;22.97;46.68;96711.88;10510308;28;1615;-60
2022/07/08 04:17:00;;;;;;;;;;;;;;;22.97;46.67;96725.09;10511842;28;1881;-56
2022/07/08 04:22:00;;;;;;;;;;;;;;;22.96;46.62;96718.22;10511206;28;1989;-61
2022/07/08 04:27:01;;;;;;;;;;;;;;;22.96;46.76;96720.84;10515347;28;1972;-61
2022/07/08 04:32:01;;;;;;;;;;;;;;;22.96;46.47;96728.78;10511941;28;1932;-55
2022/07/08 04:37:02;;;;;;;;;;;;;;;22.95;46.56;96735.16;10506843;28;1948;-57
2022/07/08 04:42:03;;;;;;;;;;;;;;;22.95;46.29;96741.25;10516525;28;2004;-60
2022/07/08 04:47:03;;;;;;;;;;;;;;;22.94;46.70;96752.84;10512223;28;1850;-56
2022/07/08 04:52:06;;;;;;;;;;;;;;;22.97;46.76;96751.53;10509469;28;1999;-55
2022/07/08 04:57:07;;;;;;;;;;;;;;;22.96;46.46;96750.75;10511612;28;1837;-60
2022/07/08 05:02:08;;;;;;;;;;;;;;;22.95;46.27;96746.53;10507342;28;2362;-59
2022/07/08 05:07:08;;;;;;;;;;;;;;;22.95;46.40;96745.72;10513166;28;2072;-55
2022/07/08 05:12:08;;;;;;;;;;;;;;;22.95;46.62;96751.00;10511083;28;2080;-58
2022/07/08 05:17:09;;;;;;;;;;;;;;;22.95;46.58;96756.31;10511779;28;1866;-57
2022/07/08 05:22:09;;;;;;;;;;;;;;;22.95;46.39;96764.25;10510471;28;2065;-57
2022/07/08 05:27:09;;;;;;;;;;;;;;;22.95;46.36;96764.25;10511435;28;1913;-60
2022/07/08 05:32:10;;;;;;;;;;;;;;;22.94;46.39;96768.72;10512046;28;1949;-60
2022/07/08 05:37:11;;;;;;;;;;;;;;;22.94;46.28;96778.50;10509442;28;1914;-59
2022/07/08 05:42:11;;;;;;;;;;;;;;;22.95;46.54;96778.25;10502188;28;2214;-61
2022/07/08 05:47:13;;;;;;;;;;;;;;;22.96;46.56;96779.03;10510079;28;1870;-58
2022/07/08 05:52:13;;;;;;;;;;;;;;;22.96;46.38;96776.38;10511156;28;1877;-57
2022/07/08 05:57:14;;;;;;;;;;;;;;;22.95;46.20;96774.81;10509236;28;1952;-63
2022/07/08 06:02:17;;;;;;;;;;;;;;;22.96;46.41;96781.66;10509387;28;1947;-62
2022/07/08 06:07:17;;;;;;;;;;;;;;;22.96;46.14;96779.81;10512647;28;2012;-57
2022/07/08 06:12:18;;;;;;;;;;;;;;;22.96;46.17;96797.53;10505824;28;1932;-59
2022/07/08 06:17:18;;;;;;;;;;;;;;;22.96;46.36;96790.41;10513130;28;1947;-62
2022/07/08 06:22:19;;;;;;;;;;;;;;;22.97;46.17;96785.91;10500891;28;1901;-60
2022/07/08 06:27:19;;;;;;;;;;;;;;;22.96;46.20;96792.25;10500996;28;1964;-57
2022/07/08 06:32:19;;;;;;;;;;;;;;;22.87;44.69;96807.06;10509135;28;2055;-57
2022/07/08 06:37:20;;;;;;;;;;;;;;;22.62;43.08;96800.69;10511637;28;1886;-61
2022/07/08 06:42:21;;;;;;;;;;;;;;;22.53;43.49;96799.56;10499669;28;1913;-58
2022/07/08 06:47:22;;;;;;;;;;;;;;;22.70;44.72;96803.84;10502014;28;1964;-57
2022/07/08 06:52:23;;;;;;;;;;;;;;;22.77;45.12;96805.22;10508854;28;1885;-55
2022/07/08 06:57:23;;;;;;;;;;;;;;;22.81;44.59;96802.81;10503594;28;1965;-54
2022/07/08 07:02:23;;;;;;;;;;;;;;;22.84;44.83;96805.72;10502198;28;1979;-58
2022/07/08 07:07:24;;;;;;;;;;;;;;;22.86;44.05;96810.75;10500336;28;2012;-57
2022/07/08 07:12:24;;;;;;;;;;;;;;;22.65;41.54;96823.13;10492530;28;1916;-59
2022/07/08 07:17:24;;;;;;;;;;;;;;;22.54;41.52;96813.56;10503315;28;1933;-60
2022/07/08 07:22:25;;;;;;;;;;;;;;;22.50;41.52;96823.84;10508190;28;2101;-58
2022/07/08 07:27:25;;;;;;;;;;;;;;;22.42;41.04;96827.00;10506671;28;1936;-58
2022/07/08 07:32:26;;;;;;;;;;;;;;;22.39;41.07;96822.25;10504722;28;1929;-57
2022/07/08 07:37:26;;;;;;;;;;;;;;;22.35;40.63;96823.81;10507573;28;1929;-56
2022/07/08 07:42:26;;;;;;;;;;;;;;;22.37;40.92;96834.94;10499811;28;1993;-55
2022/07/08 07:47:27;;;;;;;;;;;;;;;22.31;40.70;96835.97;10507012;28;1925;-55
2022/07/08 07:52:28;;;;;;;;;;;;;;;22.33;40.82;96839.13;10508703;28;1980;-59
2022/07/08 07:57:30;;;;;;;;;;;;;;;22.38;41.10;96839.13;10500199;28;2058;-58
2022/07/08 08:02:30;;;;;;;;;;;;;;;22.46;41.86;96829.94;10508683;28;1980;-59
2022/07/08 08:07:31;;;;;;;;;;;;;;;22.58;42.43;96835.81;10498543;28;1952;-58
2022/07/08 08:12:31;;;;;;;;;;;;;;;22.67;42.93;96846.69;10505628;28;1874;-60
2022/07/08 08:17:38;;;;;;;;;;;;;;;22.73;43.03;96849.06;10511906;28;2000;-54
2022/07/08 08:22:39;;;;;;;;;;;;;;;22.77;43.21;96846.69;10510517;28;1961;-60
2022/07/08 08:27:40;;;;;;;;;;;;;;;22.80;43.44;96851.44;10502210;28;1890;-56
2022/07/08 08:32:41;;;;;;;;;;;;;;;22.83;43.41;96859.69;10506051;28;2007;-54
2022/07/08 08:37:41;;;;;;;;;;;;;;;22.84;43.43;96855.97;10505174;28;1925;-59
2022/07/08 08:42:41;;;;;;;;;;;;;;;22.87;43.35;96849.38;10500544;28;1992;-60
2022/07/08 08:47:42;;;;;;;;;;;;;;;22.87;43.71;96846.72;10502920;28;1949;-59
2022/07/08 08:52:42;;;;;;;;;;;;;;;22.90;43.74;96854.13;10497258;28;1991;-56
2022/07/08 08:57:42;;;;;;;;;;;;;;;22.91;43.75;96856.53;10501955;28;1881;-57
2022/07/08 09:02:42;;;;;;;;;;;;;;;22.94;43.47;96860.47;10496162;28;2109;-57
2022/07/08 09:07:43;;;;;;;;;;;;;;;22.94;43.79;96863.09;10498094;28;1905;-55
2022/07/08 09:13:03;;;;;;;;;;;;;;;22.98;43.81;96858.91;10506331;28;1865;-58
2022/07/08 09:18:07;;;;;;;;;;;;;;;22.88;44.22;96866.81;10504128;28;1951;-58
2022/07/08 09:23:26;;;;;;;;;;;;;;;22.75;42.51;96867.31;10506200;28;1971;-62
2022/07/08 09:28:30;;;;;;;;;;;;;;;22.77;42.99;96865.22;10502921;28;1984;-58
2022/07/08 09:33:30;;;;;;;;;;;;;;;22.83;44.04;96853.59;10502403;28;1941;-58
2022/07/08 09:38:35;;;;;;;;;;;;;;;22.89;44.19;96863.13;10508799;28;1934;-56
2022/07/08 09:43:44;;;;;;;;;;;;;;;22.92;44.15;96867.88;10499931;28;1976;-59
2022/07/08 09:48:44;;;;;;;;;;;;;;;22.96;44.14;96866.28;10506526;28;1921;-57
2022/07/08 09:53:46;;;;;;;;;;;;;;;23.00;43.86;96864.72;10503290;28;1931;-55
2022/07/08 09:58:47;;;;;;;;;;;;;;;23.04;44.03;96865.81;10508558;28;2039;-53
2022/07/08 10:03:47;;;;;;;;;;;;;;;23.08;43.85;96866.84;10505457;28;2099;-56
2022/07/08 10:08:47;;;;;;;;;;;;;;;23.06;43.72;96868.97;10500654;28;2043;-55
2022/07/08 10:13:48;;;;;;;;;;;;;;;22.90;42.20;96864.69;10500459;28;1969;-60
2022/07/08 10:18:49;;;;;;;;;;;;;;;22.89;42.63;96863.13;10499792;28;2015;-58
2022/07/08 10:23:50;;;;;;;;;;;;;;;22.92;43.05;96863.38;10506028;28;1925;-58
2022/07/08 10:29:06;;;;;;;;;;;;;;;22.96;43.36;96863.63;10500958;28;1936;-60
2022/07/08 10:34:07;;;;;;;;;;;;;;;23.01;43.48;96861.00;10500508;28;1985;-56
2022/07/08 10:39:07;;;;;;;;;;;;;;;22.92;42.06;96863.38;10499908;28;1910;-57
2022/07/08 10:44:08;;;;;;;;;;;;;;;22.88;41.88;96866.81;10502150;28;1969;-56
2022/07/08 10:49:10;;;;;;;;;;;;;;;22.87;42.28;96860.75;10501638;28;1909;-55
2022/07/08 10:54:23;;;;;;;;;;;;;;;22.86;41.66;96864.44;10506292;28;1977;-56
2022/07/08 10:59:36;;;;;;;;;;;;;;;22.80;40.58;96869.97;10501753;28;2024;-60
2022/07/08 11:04:40;;;;;;;;;;;;;;;22.67;40.21;96864.09;10496343;28;2140;-56
2022/07/08 11:09:41;;;;;;;;;;;;;;;22.72;41.41;96847.47;10494492;28;1857;-59
2022/07/08 11:14:44;;;;;;;;;;;;;;;22.75;40.69;96839.00;10492532;28;2012;-55
2022/07/08 11:19:45;;;;;;;;;;;;;;;22.68;40.24;96846.41;10498986;28;1967;-56
2022/07/08 11:24:46;;;;;;;;;;;;;;;22.67;40.01;96865.94;10496753;28;2021;-60
2022/07/08 11:29:50;;;;;;;;;;;;;;;22.72;41.08;96849.31;10498278;28;1980;-59
2022/07/08 11:34:50;;;;;;;;;;;;;;;22.88;41.76;96856.22;10491804;28;2056;-54
2022/07/08 11:39:51;;;;;;;;;;;;;;;22.98;41.69;96850.97;10502766;28;2020;-59
2022/07/08 11:44:51;;;;;;;;;;;;;;;23.05;41.83;96856.78;10500685;28;1933;-59
2022/07/08 11:49:51;;;;;;;;;;;;;;;23.01;40.79;96858.38;10499266;28;1417;-59
2022/07/08 11:54:51;;;;;;;;;;;;;;;22.92;40.16;96857.28;10497421;28;1905;-58
2022/07/08 11:59:52;;;;;;;;;;;;;;;22.82;39.45;96870.50;10495822;28;1977;-62
2022/07/08 12:04:53;;;;;;;;;;;;;;;22.71;38.55;96855.69;10507890;28;1996;-59
2022/07/08 12:09:54;;;;;;;;;;;;;;;22.61;38.57;96856.41;10506448;28;1936;-58
2022/07/08 12:14:54;;;;;;;;;;;;;;;22.57;38.87;96871.97;10504620;28;2041;-58
2022/07/08 12:19:55;;;;;;;;;;;;;;;22.56;38.57;96849.25;10507244;28;1921;-59
2022/07/08 12:25:00;;;;;;;;;;;;;;;22.56;38.94;96853.75;10502364;28;1973;-61
2022/07/08 12:30:05;;;;;;;;;;;;;;;22.53;38.15;96847.13;10506564;28;1837;-58
2022/07/08 12:35:06;;;;;;;;;;;;;;;22.54;38.50;96845.28;10496658;28;1828;-54
2022/07/08 12:40:13;;;;;;;;;;;;;;;22.52;38.29;96837.59;10507989;28;2059;-58
2022/07/08 12:45:16;;;;;;;;;;;;;;;22.52;38.06;96823.63;10508972;28;1838;-61
2022/07/08 12:50:20;;;;;;;;;;;;;;;22.58;38.21;96831.34;10500030;28;1865;-62
2022/07/08 12:55:21;;;;;;;;;;;;;;;22.54;38.08;96835.53;10529767;28;1774;-60
2022/07/08 13:00:21;;;;;;;;;;;;;;;22.52;37.60;96834.94;10501644;28;1988;-61
2022/07/08 13:05:22;;;;;;;;;;;;;;;22.50;37.68;96834.41;10503801;28;1795;-60
2022/07/08 13:10:22;;;;;;;;;;;;;;;22.51;37.73;96833.38;10509773;28;1835;-61
2022/07/08 13:15:22;;;;;;;;;;;;;;;22.54;37.87;96822.31;10499971;28;1816;-60
2022/07/08 13:20:22;;;;;;;;;;;;;;;22.55;37.77;96818.59;10507879;28;1914;-63
2022/07/08 13:25:23;;;;;;;;;;;;;;;22.59;38.46;96830.25;10503699;28;1792;-64
2022/07/08 13:30:23;;;;;;;;;;;;;;;22.64;38.41;96819.72;10493773;28;1838;-62
2022/07/08 13:35:23;;;;;;;;;;;;;;;22.67;38.21;96831.59;10500532;28;1792;-58
2022/07/08 13:40:24;;;;;;;;;;;;;;;22.65;37.54;96818.66;10500538;28;1981;-60
2022/07/08 13:45:24;;;;;;;;;;;;;;;22.64;37.94;96821.56;10499371;28;1760;-61
2022/07/08 13:50:24;;;;;;;;;;;;;;;22.70;37.94;96822.34;10504363;28;1765;-60
2022/07/08 13:55:25;;;;;;;;;;;;;;;22.75;38.37;96819.75;10497855;28;2095;-54
2022/07/08 14:00:26;;;;;;;;;;;;;;;22.91;39.40;96810.78;10481383;28;1998;-56
2022/07/08 14:05:27;;;;;;;;;;;;;;;22.97;39.83;96807.06;10500191;28;1699;-57
2022/07/08 14:10:28;;;;;;;;;;;;;;;22.95;39.02;96814.47;10500366;28;1802;-56
2022/07/08 14:15:28;;;;;;;;;;;;;;;23.04;39.21;96818.19;10500397;28;1852;-54
2022/07/08 14:20:28;;;;;;;;;;;;;;;23.03;39.83;96804.16;10506385;28;1910;-57
2022/07/08 14:25:29;;;;;;;;;;;;;;;23.07;40.04;96817.66;10500198;28;1883;-58
2022/07/08 14:30:29;;;;;;;;;;;;;;;23.09;39.73;96820.81;10503471;28;1954;-59
2022/07/08 14:35:29;;;;;;;;;;;;;;;23.11;39.98;96822.16;10497122;28;1856;-56
2022/07/08 14:40:30;;;;;;;;;;;;;;;23.07;39.58;96821.09;10484835;28;1952;-59
2022/07/08 14:45:31;;;;;;;;;;;;;;;22.86;37.29;96816.84;10499721;28;1862;-56
2022/07/08 14:50:31;;;;;;;;;;;;;;;22.79;37.48;96816.31;10499351;28;1803;-56
2022/07/08 14:55:32;;;;;;;;;;;;;;;22.79;37.60;96816.31;10498990;28;1816;-58
2022/07/08 15:00:32;;;;;;;;;;;;;;;22.78;37.72;96816.56;10497281;28;1906;-57
2022/07/08 15:05:32;;;;;;;;;;;;;;;22.78;37.27;96813.91;10495046;28;1817;-58
2022/07/08 15:10:37;;;;;;;;;;;;;;;22.70;36.97;96809.13;10495597;28;1792;-61
2022/07/08 15:15:37;;;;;;;;;;;;;;;22.62;36.83;96811.25;10493148;28;1868;-57
2022/07/08 15:20:38;;;;;;;;;;;;;;;22.58;36.94;96815.47;10481204;28;2103;-59
2022/07/08 15:25:41;;;;;;;;;;;;;;;22.59;37.06;96817.03;10504548;28;1410;-57
2022/07/08 15:30:42;;;;;;;;;;;;;;;22.58;36.67;96812.84;10497133;28;1611;-60
2022/07/08 15:35:42;;;;;;;;;;;;;;;22.54;36.54;96814.38;10508008;28;1788;-60
2022/07/08 15:40:43;;;;;;;;;;;;;;;22.51;36.49;96814.88;10506089;28;2206;-57
2022/07/08 15:45:44;;;;;;;;;;;;;;;22.49;36.60;96806.44;10504994;28;1888;-55
2022/07/08 15:50:44;;;;;;;;;;;;;;;22.48;36.51;96807.47;10509721;28;1827;-59
2022/07/08 15:55:46;;;;;;;;;;;;;;;22.47;36.24;96813.81;10511441;28;1827;-58
2022/07/08 16:00:46;;;;;;;;;;;;;;;22.45;36.01;96809.84;10508356;28;1913;-54
2022/07/08 16:05:47;;;;;;;;;;;;;;;22.46;36.23;96800.88;10506861;28;1931;-59
2022/07/08 16:10:47;;;;;;;;;;;;;;;22.47;36.40;96813.00;10510768;28;1811;-56
2022/07/08 16:15:47;;;;;;;;;;;;;;;22.49;36.86;96806.44;10506500;28;1850;-54
2022/07/08 16:20:48;;;;;;;;;;;;;;;22.54;36.81;96803.81;10506677;28;1969;-57
2022/07/08 16:25:49;;;;;;;;;;;;;;;22.57;36.94;96819.13;10504923;28;1852;-59
2022/07/08 16:30:49;;;;;;;;;;;;;;;22.57;37.07;96808.56;10505851;28;1815;-59
2022/07/08 16:35:50;;;;;;;;;;;;;;;22.61;37.04;96807.00;10508052;28;1791;-60
2022/07/08 16:40:52;;;;;;;;;;;;;;;22.64;37.11;96797.78;10500442;28;1938;-59
2022/07/08 16:45:52;;;;;;;;;;;;;;;22.63;36.95;96807.53;10500354;28;1898;-54
2022/07/08 16:50:53;;;;;;;;;;;;;;;22.64;36.77;96803.84;10506069;28;1862;-55
2022/07/08 16:55:53;;;;;;;;;;;;;;;22.65;36.87;96797.50;10507800;28;1877;-59
2022/07/08 17:00:55;;;;;;;;;;;;;;;22.61;36.84;96793.78;10492945;28;1909;-56
2022/07/08 17:05:56;;;;;;;;;;;;;;;22.58;36.49;96794.34;10510506;28;1704;-54
2022/07/08 17:10:57;;;;;;;;;;;;;;;22.54;36.39;96797.72;10509309;28;1839;-58
2022/07/08 17:15:59;;;;;;;;;;;;;;;22.53;36.55;96796.91;10509710;28;1809;-59
2022/07/08 17:20:59;;;;;;;;;;;;;;;22.54;36.40;96784.50;10514392;28;2187;-56
2022/07/08 17:26:01;;;;;;;;;;;;;;;22.51;36.59;96785.03;10511081;28;2006;-54
2022/07/08 17:31:01;;;;;;;;;;;;;;;22.50;36.47;96786.84;10511778;28;1808;-58
2022/07/08 17:36:02;;;;;;;;;;;;;;;22.52;36.33;96787.38;10507563;28;1824;-57
2022/07/08 17:41:02;;;;;;;;;;;;;;;22.54;36.60;96785.31;10509987;28;1977;-55
2022/07/08 17:46:02;;;;;;;;;;;;;;;22.54;36.29;96792.44;10507282;28;2479;-56
2022/07/08 17:51:03;;;;;;;;;;;;;;;22.51;36.25;96788.47;10508808;28;1859;-54
2022/07/08 17:56:04;;;;;;;;;;;;;;;22.49;36.28;96787.94;10508165;28;1845;-57
2022/07/08 18:01:05;;;;;;;;;;;;;;;22.47;36.22;96797.97;10508687;28;1905;-57
2022/07/08 18:06:05;;;;;;;;;;;;;;;22.47;36.19;96808.53;10511758;28;1855;-56
2022/07/08 18:11:05;;;;;;;;;;;;;;;22.45;36.09;96797.44;10502786;28;1780;-57
2022/07/08 18:16:06;;;;;;;;;;;;;;;22.46;36.34;96804.28;10505891;28;1857;-59
2022/07/08 18:21:07;;;;;;;;;;;;;;;22.45;36.23;96802.72;10504675;28;1969;-55
2022/07/08 18:26:09;;;;;;;;;;;;;;;22.45;36.09;96809.84;10508942;28;1843;-55
2022/07/08 18:31:10;;;;;;;;;;;;;;;22.45;36.22;96805.34;10508562;28;1844;-54
2022/07/08 18:36:10;;;;;;;;;;;;;;;22.45;36.31;96810.63;10507272;28;1725;-56
2022/07/08 18:41:11;;;;;;;;;;;;;;;22.45;36.50;96805.34;10506918;28;1913;-57
2022/07/08 18:46:11;;;;;;;;;;;;;;;22.45;36.14;96808.00;10508516;28;1839;-56
2022/07/08 18:51:12;;;;;;;;;;;;;;;22.43;36.04;96807.47;10509661;28;1815;-56
2022/07/08 18:56:12;;;;;;;;;;;;;;;22.43;36.05;96814.59;10505636;28;1776;-60
2022/07/08 19:01:13;;;;;;;;;;;;;;;22.42;35.96;96824.34;10509667;28;1934;-57
2022/07/08 19:06:13;;;;;;;;;;;;;;;22.41;36.05;96824.63;10509682;28;1787;-58
2022/07/08 19:11:14;;;;;;;;;;;;;;;22.40;35.89;96825.69;10511123;28;1807;-58
2022/07/08 19:16:14;;;;;;;;;;;;;;;22.39;35.90;96822.25;10513146;28;1760;-54
2022/07/08 19:21:14;;;;;;;;;;;;;;;22.38;35.95;96825.94;10516036;28;1886;-59
2022/07/08 19:26:15;;;;;;;;;;;;;;;22.38;36.41;96828.56;10513548;28;1807;-61
2022/07/08 19:31:15;;;;;;;;;;;;;;;22.39;36.37;96838.09;10511891;28;1863;-61
2022/07/08 19:36:15;;;;;;;;;;;;;;;22.38;36.24;96833.84;10511855;28;1719;-59
2022/07/08 19:41:15;;;;;;;;;;;;;;;22.38;36.18;96839.13;10511363;28;2343;-58
2022/07/08 19:46:16;;;;;;;;;;;;;;;22.37;36.39;96844.69;10510725;28;1783;-57
2022/07/08 19:51:17;;;;;;;;;;;;;;;22.38;36.40;96843.66;10515266;28;1807;-57
2022/07/08 19:56:17;;;;;;;;;;;;;;;22.39;36.51;96847.88;10507830;28;1843;-58
2022/07/08 20:01:17;;;;;;;;;;;;;;;22.37;36.53;96848.13;10520026;28;1985;-56
2022/07/08 20:06:18;;;;;;;;;;;;;;;22.36;36.62;96843.13;10516385;28;1974;-55
2022/07/08 20:11:18;;;;;;;;;;;;;;;22.36;36.40;96843.88;10512129;28;1760;-53
2022/07/08 20:16:19;;;;;;;;;;;;;;;22.37;36.52;96847.31;10517410;28;1823;-57
2022/07/08 20:21:19;;;;;;;;;;;;;;;22.35;36.47;96850.25;10515192;28;1953;-59
2022/07/08 20:26:19;;;;;;;;;;;;;;;22.34;36.33;96846.00;10512560;28;1843;-55
2022/07/08 20:31:20;;;;;;;;;;;;;;;22.34;36.69;96851.28;10515311;28;1760;-55
2022/07/08 20:36:20;;;;;;;;;;;;;;;22.32;36.35;96849.94;10507540;28;1850;-56
2022/07/08 20:46:40;;;;;;;;;;;;;;;22.34;37.04;96848.63;10507164;28;1866;-54
2022/07/08 20:51:41;;;;;;;;;;;;;;;22.34;36.71;96850.50;10508806;28;1843;-60
2022/07/08 20:56:42;;;;;;;;;;;;;;;22.31;36.65;96846.53;10509804;28;1788;-54
2022/07/08 21:01:42;;;;;;;;;;;;;;;22.32;36.75;96852.56;10511147;28;1961;-52
2022/07/08 21:06:43;;;;;;;;;;;;;;;22.32;37.06;96845.47;10508189;28;1832;-56
2022/07/08 21:11:43;;;;;;;;;;;;;;;22.30;37.04;96837.00;10509304;28;1773;-53
2022/07/08 21:16:43;;;;;;;;;;;;;;;22.32;37.25;96837.53;10511249;28;1911;-57
2022/07/08 21:21:44;;;;;;;;;;;;;;;22.35;37.26;96831.75;10508335;28;1989;-55
2022/07/08 21:26:45;;;;;;;;;;;;;;;22.36;37.46;96828.03;10511472;28;1808;-55
2022/07/08 21:31:49;;;;;;;;;;;;;;;22.39;37.26;96826.72;10507630;28;1768;-56
2022/07/08 21:36:49;;;;;;;;;;;;;;;22.41;37.67;96827.25;10506613;28;1787;-52
2022/07/08 21:41:49;;;;;;;;;;;;;;;22.34;36.79;96824.84;10508914;28;1992;-52
2022/07/08 21:46:50;;;;;;;;;;;;;;;22.23;36.64;96825.91;10507545;28;1784;-54
2022/07/08 21:51:50;;;;;;;;;;;;;;;22.16;36.56;96822.69;10512073;28;2092;-51
2022/07/08 21:56:50;;;;;;;;;;;;;;;22.18;36.96;96825.84;10505333;28;3274;-51
2022/07/08 22:01:50;;;;;;;;;;;;;;;22.24;37.16;96813.47;10509739;28;1917;-55
2022/07/08 22:06:51;;;;;;;;;;;;;;;22.29;37.10;96819.56;10500210;28;1934;-56
2022/07/08 22:11:52;;;;;;;;;;;;;;;22.33;37.31;96814.56;10506836;28;1938;-59
2022/07/08 22:16:58;;;;;;;;;;;;;;;22.34;37.60;96814.28;10506501;28;2477;-57
2022/07/08 22:21:58;;;;;;;;;;;;;;;22.39;37.43;96810.88;10496878;28;1969;-58
2022/07/08 22:26:59;;;;;;;;;;;;;;;22.38;37.44;96804.78;10503878;28;1442;-57
2022/07/08 22:31:59;;;;;;;;;;;;;;;22.35;37.44;96800.03;10500608;28;1620;-57
2022/07/08 22:36:59;;;;;;;;;;;;;;;22.35;37.35;96792.13;10500670;28;1480;-59
2022/07/08 22:42:04;;;;;;;;;;;;;;;22.41;37.53;96792.91;10504785;28;1910;-57
2022/07/08 22:47:05;;;;;;;;;;;;;;;22.41;37.46;96787.63;10500122;28;1469;-58
2022/07/08 22:52:06;;;;;;;;;;;;;;;22.40;37.65;96781.56;10503616;28;1445;-55
2022/07/08 22:57:06;;;;;;;;;;;;;;;22.40;37.50;96786.84;10506703;28;1425;-58
2022/07/08 23:02:07;;;;;;;;;;;;;;;22.40;37.43;96776.28;10502187;28;1922;-59
2022/07/08 23:07:07;;;;;;;;;;;;;;;22.38;37.55;96777.59;10504447;28;1509;-60
2022/07/08 23:12:08;;;;;;;;;;;;;;;22.33;37.34;96774.94;10499600;28;1779;-58
2022/07/08 23:17:08;;;;;;;;;;;;;;;22.32;37.32;96776.78;10501886;28;1391;-61
2022/07/08 23:22:08;;;;;;;;;;;;;;;22.30;37.34;96770.16;10509029;28;1930;-57
2022/07/08 23:27:09;;;;;;;;;;;;;;;22.27;37.22;96766.22;10495355;28;1376;-55
2022/07/08 23:32:09;;;;;;;;;;;;;;;22.26;37.24;96761.97;10499764;28;1480;-58
2022/07/08 23:37:09;;;;;;;;;;;;;;;22.24;37.31;96758.00;10503049;28;1850;-57
2022/07/08 23:42:09;;;;;;;;;;;;;;;22.26;37.68;96763.81;10505177;28;1905;-61
2022/07/08 23:47:10;;;;;;;;;;;;;;;22.28;37.60;96762.50;10507670;28;1818;-59
2022/07/08 23:52:11;;;;;;;;;;;;;;;22.30;37.84;96763.03;10513088;28;1881;-59
2022/07/08 23:57:11;;;;;;;;;;;;;;;22.31;37.85;96748.78;10511301;28;1815;-55
